Time;durP1;ratioP1;P1;durP2;ratioP2;P2;SDS_P1;SDS_P2;PMS_P1;PMS_P2;Temp;Humidity;BMP_temperature;BMP_pressure;BME280_temperature;BME280_humidity;BME280_pressure;Samples;Min_cycle;Max_cycle;Signal;HPM_P1;HPM_P2
2022/01/30 00:01:43;;;;;;;25.23;5.10;;;5.00;99.90;;;;;;5070995;28;20276;-65
2022/01/30 00:04:12;;;;;;;23.63;4.87;;;5.00;99.90;;;;;;5065295;28;20184;-66
2022/01/30 00:06:41;;;;;;;29.43;5.13;;;5.00;99.90;;;;;;5070151;28;20258;-66
2022/01/30 00:09:17;;;;;;;21.10;4.60;;;4.90;99.90;;;;;;5064852;28;20244;-66
2022/01/30 00:11:50;;;;;;;29.60;5.57;;;4.90;99.90;;;;;;5046294;28;20839;-66
2022/01/30 00:14:22;;;;;;;29.87;5.30;;;4.90;99.90;;;;;;5066142;28;20278;-66
2022/01/30 00:16:58;;;;;;;21.17;4.77;;;4.90;99.90;;;;;;5066498;28;20370;-66
2022/01/30 00:19:33;;;;;;;21.93;4.80;;;4.90;99.90;;;;;;5061751;28;20196;-66
2022/01/30 00:22:14;;;;;;;29.40;5.03;;;4.80;99.90;;;;;;5061517;28;20203;-66
2022/01/30 00:24:49;;;;;;;16.03;4.80;;;4.70;99.90;;;;;;5067218;28;21051;-65
2022/01/30 00:27:26;;;;;;;19.60;4.40;;;4.60;99.90;;;;;;5062279;28;20999;-66
2022/01/30 00:29:55;;;;;;;22.57;4.57;;;4.60;99.90;;;;;;5054051;28;20208;-66
2022/01/30 00:32:24;;;;;;;22.67;5.43;;;4.60;99.90;;;;;;5066001;28;20223;-66
2022/01/30 00:35:13;;;;;;;28.10;5.20;;;4.60;99.90;;;;;;5061009;28;20224;-66
2022/01/30 00:37:48;;;;;;;21.23;4.33;;;4.50;99.90;;;;;;5061878;28;20192;-66
2022/01/30 00:40:35;;;;;;;24.27;4.50;;;4.50;99.90;;;;;;5077133;28;20196;-65
2022/01/30 00:43:05;;;;;;;24.40;5.37;;;4.50;99.90;;;;;;5065122;28;20276;-65
2022/01/30 00:45:36;;;;;;;23.37;4.87;;;4.60;99.90;;;;;;5065800;28;20200;-66
2022/01/30 00:48:05;;;;;;;17.77;4.30;;;4.50;99.90;;;;;;5057961;28;20196;-67
2022/01/30 00:50:37;;;;;;;25.27;4.97;;;4.70;99.90;;;;;;5059096;28;20204;-66
2022/01/30 00:53:06;;;;;;;21.67;4.67;;;4.70;99.90;;;;;;5061580;28;20183;-66
2022/01/30 00:55:35;;;;;;;22.83;4.83;;;4.60;99.90;;;;;;5062675;28;20234;-66
2022/01/30 00:58:04;;;;;;;35.07;4.97;;;4.50;99.90;;;;;;5064051;28;20269;-66
2022/01/30 01:00:33;;;;;;;16.73;4.07;;;4.40;99.90;;;;;;5065381;28;20189;-66
2022/01/30 01:03:13;;;;;;;20.10;4.13;;;4.30;99.90;;;;;;5067546;28;20200;-66
2022/01/30 01:06:19;;;;;;;18.23;4.90;;;4.20;99.90;;;;;;5065405;28;20219;-66
2022/01/30 01:08:51;;;;;;;21.97;5.07;;;4.10;99.90;;;;;;5056146;28;20219;-65
2022/01/30 01:11:51;;;;;;;25.77;5.10;;;4.10;99.90;;;;;;5061949;28;20696;-65
2022/01/30 01:25:17;;;;;;;20.90;5.23;;;4.10;99.90;;;;;;5047790;28;20199;-66
2022/01/30 01:27:46;;;;;;;33.03;5.10;;;4.10;99.90;;;;;;5060990;28;20208;-65
2022/01/30 01:30:14;;;;;;;22.80;5.40;;;4.10;99.90;;;;;;5065266;28;20195;-66
2022/01/30 01:32:42;;;;;;;30.30;4.57;;;4.00;99.90;;;;;;5037101;28;20192;-66
2022/01/30 01:35:12;;;;;;;19.73;4.77;;;3.90;99.90;;;;;;5067267;28;20299;-66
2022/01/30 01:37:41;;;;;;;25.97;5.00;;;3.90;99.90;;;;;;5062515;28;20308;-66
2022/01/30 01:40:10;;;;;;;25.23;5.07;;;3.80;99.90;;;;;;5060930;28;20234;-66
2022/01/30 01:42:39;;;;;;;30.20;5.00;;;3.80;99.90;;;;;;5064435;28;20309;-66
2022/01/30 01:45:07;;;;;;;26.63;5.13;;;3.90;99.90;;;;;;5061686;28;20280;-65
2022/01/30 01:47:36;;;;;;;22.27;5.27;;;3.90;99.90;;;;;;5067298;28;20728;-66
2022/01/30 01:50:05;;;;;;;27.23;5.27;;;3.90;99.90;;;;;;5072231;28;20268;-66
2022/01/30 01:52:35;;;;;;;24.70;4.77;;;3.90;99.90;;;;;;5073166;28;20195;-66
2022/01/30 01:55:07;;;;;;;28.93;5.17;;;3.90;99.90;;;;;;5062146;28;20224;-66
2022/01/30 01:57:36;;;;;;;28.00;5.43;;;3.80;99.90;;;;;;5060848;28;20604;-66
2022/01/30 02:00:05;;;;;;;27.30;5.10;;;3.80;99.90;;;;;;5064905;28;20203;-66
2022/01/30 02:02:34;;;;;;;24.80;5.30;;;3.80;99.90;;;;;;5054322;28;20208;-65
2022/01/30 02:05:04;;;;;;;30.97;5.67;;;3.70;99.90;;;;;;5062561;28;20242;-65
2022/01/30 02:10:27;;;;;;;28.83;5.70;;;3.70;99.90;;;;;;5063229;28;20191;-65
2022/01/30 02:13:08;;;;;;;19.80;5.20;;;3.70;99.90;;;;;;5068959;28;20199;-66
2022/01/30 02:23:56;;;;;;;22.10;4.53;;;3.70;99.90;;;;;;5061039;28;20256;-65
2022/01/30 02:24:15;;;;;;;30.63;5.23;;;3.60;99.90;;;;;;5080881;28;20226;-65
2022/01/30 02:26:46;;;;;;;34.70;7.43;;;3.60;99.90;;;;;;5063192;28;20192;-65
2022/01/30 02:29:15;;;;;;;26.83;5.23;;;3.60;99.90;;;;;;5058773;28;20249;-65
2022/01/30 02:31:43;;;;;;;30.57;5.93;;;3.70;99.90;;;;;;5074477;28;20227;-66
2022/01/30 02:34:12;;;;;;;19.23;4.83;;;3.70;99.90;;;;;;5072625;28;20192;-66
2022/01/30 02:36:49;;;;;;;22.70;5.23;;;3.60;99.90;;;;;;5061898;28;20285;-65
2022/01/30 02:39:20;;;;;;;24.87;5.57;;;3.50;99.90;;;;;;5064391;28;20230;-65
2022/01/30 02:41:49;;;;;;;21.33;5.17;;;3.50;99.90;;;;;;5073366;28;20204;-65
2022/01/30 02:44:22;;;;;;;25.67;4.77;;;3.40;99.90;;;;;;5068528;28;20786;-65
2022/01/30 02:46:53;;;;;;;20.10;4.77;;;3.40;99.90;;;;;;5069239;28;20672;-65
2022/01/30 02:52:09;;;;;;;27.23;5.80;;;3.30;99.90;;;;;;5064550;28;20219;-65
2022/01/30 02:54:40;;;;;;;22.40;5.10;;;3.30;99.90;;;;;;5066467;28;20272;-65
2022/01/30 02:57:09;;;;;;;27.23;5.10;;;3.30;99.90;;;;;;5046940;28;20267;-65
2022/01/30 02:59:39;;;;;;;23.70;5.07;;;3.40;99.90;;;;;;5069217;28;20663;-66
2022/01/30 03:02:07;;;;;;;33.33;5.50;;;3.40;99.90;;;;;;5060923;28;20197;-65
2022/01/30 03:04:36;;;;;;;31.43;5.00;;;3.50;99.90;;;;;;5079870;28;20192;-66
2022/01/30 03:07:05;;;;;;;23.50;5.30;;;3.50;99.90;;;;;;5070191;28;20713;-66
2022/01/30 03:09:33;;;;;;;29.80;6.20;;;3.50;99.90;;;;;;5066272;28;20188;-66
2022/01/30 03:12:04;;;;;;;26.77;5.00;;;3.50;99.90;;;;;;5066775;28;20255;-66
2022/01/30 03:14:33;;;;;;;37.67;5.13;;;3.50;99.90;;;;;;5068776;28;20195;-66
2022/01/30 03:17:01;;;;;;;28.23;4.77;;;3.40;99.90;;;;;;5074336;28;20219;-66
2022/01/30 03:19:30;;;;;;;29.43;4.83;;;3.40;99.90;;;;;;5065640;28;20211;-65
2022/01/30 03:21:58;;;;;;;26.50;5.17;;;3.30;99.90;;;;;;5068211;28;20239;-65
2022/01/30 03:24:33;;;;;;;29.00;6.03;;;3.30;99.90;;;;;;5068028;28;20257;-66
2022/01/30 03:27:04;;;;;;;26.63;5.63;;;3.30;99.90;;;;;;5071508;28;20187;-65
2022/01/30 03:29:34;;;;;;;26.47;5.00;;;3.40;99.90;;;;;;5076439;28;20192;-66
2022/01/30 03:32:02;;;;;;;30.50;4.70;;;3.30;99.90;;;;;;5063397;28;20221;-66
2022/01/30 03:34:31;;;;;;;17.63;4.47;;;3.30;99.90;;;;;;5075227;28;20250;-65
2022/01/30 03:36:59;;;;;;;26.70;4.63;;;3.30;99.90;;;;;;5070763;28;20337;-65
2022/01/30 03:39:28;;;;;;;21.67;4.63;;;3.30;99.90;;;;;;5066777;28;20628;-65
2022/01/30 03:41:56;;;;;;;20.40;4.90;;;3.30;99.90;;;;;;5068364;28;20254;-65
2022/01/30 03:44:25;;;;;;;24.17;4.60;;;3.30;99.90;;;;;;5065591;28;20720;-65
2022/01/30 03:46:54;;;;;;;24.20;5.57;;;3.20;99.90;;;;;;5064763;28;20230;-65
2022/01/30 03:49:24;;;;;;;18.03;4.07;;;3.20;99.90;;;;;;5064775;28;20193;-65
2022/01/30 03:51:53;;;;;;;23.97;5.63;;;3.30;99.90;;;;;;5070785;28;20278;-65
2022/01/30 03:54:21;;;;;;;19.80;5.23;;;3.20;99.90;;;;;;5064731;28;20243;-65
2022/01/30 03:56:50;;;;;;;20.90;5.10;;;3.20;99.90;;;;;;5052466;28;20209;-65
2022/01/30 03:59:18;;;;;;;15.10;4.47;;;3.20;99.90;;;;;;5075178;28;20744;-66
2022/01/30 04:01:48;;;;;;;28.20;4.67;;;3.20;99.90;;;;;;5067022;28;20192;-65
2022/01/30 04:04:17;;;;;;;18.93;4.37;;;3.10;99.90;;;;;;5062010;28;20200;-65
2022/01/30 04:06:46;;;;;;;31.23;5.20;;;3.10;99.90;;;;;;5066552;28;20216;-65
2022/01/30 04:09:15;;;;;;;28.60;4.53;;;3.10;99.90;;;;;;5068602;28;20227;-65
2022/01/30 04:11:43;;;;;;;22.13;4.57;;;3.10;99.90;;;;;;5069181;28;20196;-65
2022/01/30 04:14:12;;;;;;;20.30;4.43;;;3.10;99.90;;;;;;5063276;28;20732;-65
2022/01/30 04:16:41;;;;;;;21.20;4.93;;;3.00;99.90;;;;;;5060956;28;20232;-65
2022/01/30 04:19:12;;;;;;;20.87;4.97;;;3.00;99.90;;;;;;5062510;28;20228;-65
2022/01/30 04:21:40;;;;;;;32.77;4.80;;;2.90;99.90;;;;;;5063102;28;20740;-65
2022/01/30 04:24:09;;;;;;;24.03;5.00;;;2.90;99.90;;;;;;5070005;28;20732;-65
2022/01/30 04:26:37;;;;;;;25.23;5.30;;;2.80;99.90;;;;;;5075620;28;20220;-65
2022/01/30 04:29:06;;;;;;;28.13;5.07;;;2.80;99.90;;;;;;5072200;28;20196;-65
2022/01/30 04:31:35;;;;;;;21.70;4.60;;;2.70;99.90;;;;;;5066357;28;21007;-65
2022/01/30 04:34:04;;;;;;;25.87;5.00;;;2.70;99.90;;;;;;5069038;28;20774;-65
2022/01/30 04:36:40;;;;;;;22.53;4.53;;;2.60;99.90;;;;;;5073720;28;20227;-65
2022/01/30 04:39:17;;;;;;;20.40;5.40;;;2.60;99.90;;;;;;5060285;28;20222;-66
2022/01/30 04:58:49;;;;;;;20.53;4.80;;;2.60;99.90;;;;;;5066307;28;20231;-65
2022/01/30 05:01:24;;;;;;;24.27;5.17;;;2.50;99.90;;;;;;5066939;28;20200;-65
2022/01/30 05:04:00;;;;;;;23.33;4.80;;;2.40;99.90;;;;;;5063415;28;20302;-65
2022/01/30 05:06:52;;;;;;;22.00;4.33;;;2.30;99.90;;;;;;5066251;28;20284;-65
2022/01/30 05:09:22;;;;;;;23.93;4.40;;;2.20;99.90;;;;;;5063756;28;20219;-65
2022/01/30 05:11:51;;;;;;;18.77;5.03;;;2.20;99.90;;;;;;5063119;28;20207;-63
2022/01/30 05:14:27;;;;;;;27.50;5.07;;;2.20;99.90;;;;;;5062349;28;20231;-65
2022/01/30 05:16:56;;;;;;;25.20;4.67;;;2.20;99.90;;;;;;5066295;28;20622;-65
2022/01/30 05:19:25;;;;;;;26.60;4.43;;;2.20;99.90;;;;;;5061312;28;20197;-65
2022/01/30 05:21:54;;;;;;;24.07;4.97;;;2.20;99.90;;;;;;5060712;28;20310;-65
2022/01/30 05:24:24;;;;;;;19.67;4.53;;;2.20;99.90;;;;;;5062154;28;21049;-65
2022/01/30 05:26:53;;;;;;;25.43;5.13;;;2.20;99.90;;;;;;5069716;28;20207;-65
2022/01/30 05:29:22;;;;;;;18.90;5.00;;;2.20;99.90;;;;;;5064690;28;20614;-65
2022/01/30 05:31:51;;;;;;;15.67;4.37;;;2.10;99.90;;;;;;5059439;28;20234;-65
2022/01/30 05:34:20;;;;;;;24.83;5.60;;;2.00;99.90;;;;;;5064217;28;20242;-65
2022/01/30 05:36:48;;;;;;;18.67;4.80;;;2.00;99.90;;;;;;5064564;28;20232;-65
2022/01/30 05:39:17;;;;;;;15.27;4.40;;;1.90;99.90;;;;;;5074905;28;20292;-65
2022/01/30 05:41:48;;;;;;;20.00;4.37;;;1.80;99.90;;;;;;5063443;28;20282;-65
2022/01/30 05:44:20;;;;;;;26.30;5.43;;;1.80;99.90;;;;;;5066074;28;20235;-65
2022/01/30 05:46:54;;;;;;;28.90;4.80;;;1.70;99.90;;;;;;5074239;28;20678;-65
2022/01/30 05:49:23;;;;;;;25.20;5.37;;;1.80;99.90;;;;;;5063714;28;20731;-65
2022/01/30 05:51:52;;;;;;;23.07;5.13;;;2.00;99.90;;;;;;5067454;28;20200;-65
2022/01/30 05:54:20;;;;;;;19.23;4.47;;;2.00;99.90;;;;;;5060548;28;20204;-65
2022/01/30 05:56:50;;;;;;;21.13;4.97;;;1.90;99.90;;;;;;5061560;28;20235;-65
2022/01/30 05:59:19;;;;;;;26.87;5.30;;;1.90;99.90;;;;;;5066382;28;20253;-65
2022/01/30 06:01:47;;;;;;;24.90;5.20;;;1.90;99.90;;;;;;5064906;28;20237;-65
2022/01/30 06:04:16;;;;;;;31.47;5.70;;;1.90;99.90;;;;;;5060307;28;20743;-65
2022/01/30 06:06:49;;;;;;;27.33;5.27;;;1.80;99.90;;;;;;5062999;28;20249;-65
2022/01/30 06:09:19;;;;;;;24.77;5.47;;;1.90;99.90;;;;;;5073852;28;20197;-65
2022/01/30 06:11:50;;;;;;;26.63;5.10;;;1.80;99.90;;;;;;5064798;28;20240;-65
2022/01/30 06:14:18;;;;;;;31.20;5.93;;;1.80;99.90;;;;;;5063516;28;20284;-65
2022/01/30 06:16:49;;;;;;;19.07;5.73;;;1.80;99.90;;;;;;5063679;28;20199;-65
2022/01/30 06:19:18;;;;;;;33.47;6.30;;;1.80;99.90;;;;;;5078721;28;20228;-65
2022/01/30 06:21:46;;;;;;;23.30;5.00;;;1.80;99.90;;;;;;5063592;28;20546;-65
2022/01/30 06:24:15;;;;;;;32.33;6.67;;;1.70;99.90;;;;;;5067169;28;20204;-65
2022/01/30 06:26:44;;;;;;;37.53;5.83;;;1.70;99.90;;;;;;5068384;28;20209;-65
2022/01/30 06:29:14;;;;;;;23.53;5.17;;;1.80;99.90;;;;;;5038561;28;20223;-65
2022/01/30 06:31:42;;;;;;;26.10;5.20;;;1.80;99.90;;;;;;5063846;28;20204;-65
2022/01/30 06:34:11;;;;;;;30.17;5.63;;;1.70;99.90;;;;;;5058586;28;20200;-64
2022/01/30 06:36:40;;;;;;;30.87;6.60;;;1.70;99.90;;;;;;5059946;28;20258;-65
2022/01/30 06:39:08;;;;;;;27.10;5.47;;;1.70;99.90;;;;;;5063197;28;20215;-65
2022/01/30 06:41:37;;;;;;;26.43;6.30;;;1.60;99.90;;;;;;5056925;28;20207;-65
2022/01/30 06:44:07;;;;;;;22.40;6.40;;;1.60;99.90;;;;;;5063048;28;20285;-65
2022/01/30 06:46:38;;;;;;;26.43;6.00;;;1.60;99.90;;;;;;5049818;28;20227;-65
2022/01/30 06:49:07;;;;;;;25.77;5.43;;;1.60;99.90;;;;;;5063011;28;20198;-65
2022/01/30 06:51:36;;;;;;;23.80;5.60;;;1.70;99.90;;;;;;5062603;28;20204;-65
2022/01/30 06:54:05;;;;;;;25.47;5.83;;;1.80;99.90;;;;;;5059065;28;20231;-65
2022/01/30 06:56:34;;;;;;;19.50;6.20;;;1.80;99.90;;;;;;5059778;28;20204;-64
2022/01/30 06:59:02;;;;;;;24.83;8.30;;;1.80;99.90;;;;;;5065552;28;20245;-65
2022/01/30 07:01:30;;;;;;;29.60;7.93;;;1.80;99.90;;;;;;5060247;28;20228;-65
2022/01/30 07:04:01;;;;;;;28.53;7.77;;;1.90;99.90;;;;;;5062456;28;20242;-65
2022/01/30 07:06:30;;;;;;;36.57;6.60;;;1.90;99.90;;;;;;5070426;28;20206;-65
2022/01/30 07:08:59;;;;;;;29.83;7.27;;;1.80;99.90;;;;;;5063837;28;20286;-65
2022/01/30 07:11:30;;;;;;;31.47;7.37;;;1.80;99.90;;;;;;5062508;28;20199;-65
2022/01/30 07:13:59;;;;;;;31.13;7.37;;;1.70;99.90;;;;;;5064870;28;20293;-65
2022/01/30 07:16:27;;;;;;;37.90;8.70;;;1.60;99.90;;;;;;5071348;28;20203;-65
2022/01/30 07:18:56;;;;;;;36.13;8.37;;;1.60;99.90;;;;;;5065043;28;20291;-65
2022/01/30 07:21:26;;;;;;;28.90;5.83;;;1.60;99.90;;;;;;5065196;28;20223;-65
2022/01/30 07:23:55;;;;;;;24.23;6.70;;;1.70;99.90;;;;;;5065454;28;20279;-65
2022/01/30 07:26:23;;;;;;;26.10;6.63;;;1.70;99.90;;;;;;5071063;28;20211;-64
2022/01/30 07:28:52;;;;;;;25.93;6.87;;;1.80;99.90;;;;;;5069307;28;20196;-65
2022/01/30 07:31:20;;;;;;;24.87;6.77;;;1.80;99.90;;;;;;5073209;28;20200;-65
2022/01/30 07:33:49;;;;;;;16.43;5.83;;;1.70;99.90;;;;;;5066012;28;20203;-65
2022/01/30 07:36:17;;;;;;;32.90;6.73;;;1.70;99.90;;;;;;5069130;28;20188;-65
2022/01/30 07:38:47;;;;;;;25.07;6.73;;;1.70;99.90;;;;;;5058087;28;20220;-65
2022/01/30 07:41:16;;;;;;;39.47;6.57;;;1.70;99.90;;;;;;5065343;28;20192;-65
2022/01/30 07:43:44;;;;;;;31.20;6.80;;;1.80;99.90;;;;;;5059193;28;20224;-65
2022/01/30 07:46:13;;;;;;;41.83;6.53;;;1.80;99.90;;;;;;5065345;28;20287;-65
2022/01/30 07:48:42;;;;;;;29.27;8.47;;;1.70;99.90;;;;;;5063947;28;20203;-65
2022/01/30 07:51:10;;;;;;;31.80;10.10;;;1.70;99.90;;;;;;5064034;28;20842;-65
2022/01/30 07:53:39;;;;;;;44.77;10.87;;;1.70;99.90;;;;;;5060293;28;20188;-65
2022/01/30 07:56:09;;;;;;;23.50;7.50;;;1.70;99.90;;;;;;5067486;28;20199;-65
2022/01/30 07:58:37;;;;;;;30.43;7.50;;;1.80;99.90;;;;;;5064479;28;20208;-65
2022/01/30 08:01:06;;;;;;;38.83;6.67;;;2.00;99.90;;;;;;5063794;28;20304;-65
2022/01/30 08:03:34;;;;;;;32.63;6.80;;;2.10;99.90;;;;;;5080748;28;20214;-65
2022/01/30 08:06:03;;;;;;;25.40;6.00;;;2.20;99.90;;;;;;5071103;28;20195;-65
2022/01/30 08:08:32;;;;;;;40.70;7.30;;;2.30;99.90;;;;;;5061626;28;20199;-65
2022/01/30 08:11:00;;;;;;;23.73;6.57;;;2.40;99.90;;;;;;5064055;28;20208;-65
2022/01/30 08:13:33;;;;;;;33.87;6.73;;;2.40;99.90;;;;;;5067447;28;20667;-65
2022/01/30 08:16:01;;;;;;;30.90;6.60;;;2.50;99.90;;;;;;5058764;28;20228;-65
2022/01/30 08:18:30;;;;;;;26.47;6.03;;;2.50;99.90;;;;;;5066483;28;20479;-65
2022/01/30 08:20:59;;;;;;;19.20;7.20;;;2.60;99.90;;;;;;5075874;28;20289;-65
2022/01/30 08:23:28;;;;;;;27.97;6.37;;;2.70;99.90;;;;;;5058558;28;20670;-65
2022/01/30 08:25:57;;;;;;;30.60;6.60;;;2.90;99.90;;;;;;5074950;28;20204;-65
2022/01/30 08:28:26;;;;;;;30.67;7.20;;;3.10;99.90;;;;;;5060206;28;20196;-64
2022/01/30 08:30:56;;;;;;;36.23;6.93;;;3.20;99.90;;;;;;5064148;28;20291;-65
2022/01/30 08:33:25;;;;;;;38.03;8.03;;;3.20;99.90;;;;;;5066838;28;20204;-65
2022/01/30 08:35:54;;;;;;;26.17;7.47;;;3.30;99.90;;;;;;5060417;28;20203;-64
2022/01/30 08:38:22;;;;;;;35.47;7.77;;;3.30;99.90;;;;;;5066970;28;20196;-65
2022/01/30 08:40:51;;;;;;;26.47;7.13;;;3.30;99.90;;;;;;5059683;28;20201;-64
2022/01/30 08:43:21;;;;;;;32.23;7.70;;;3.40;99.90;;;;;;5062313;28;20228;-65
2022/01/30 08:45:51;;;;;;;24.77;7.83;;;3.50;99.90;;;;;;5056040;28;20211;-65
2022/01/30 08:48:21;;;;;;;33.03;7.40;;;3.50;99.90;;;;;;5059378;28;20239;-65
2022/01/30 08:50:50;;;;;;;20.00;5.07;;;3.70;99.90;;;;;;5060530;28;20204;-65
2022/01/30 08:53:18;;;;;;;25.57;6.37;;;4.00;99.90;;;;;;5058382;28;20215;-65
2022/01/30 08:55:49;;;;;;;28.83;6.57;;;4.20;99.90;;;;;;5043478;28;20261;-65
2022/01/30 08:58:17;;;;;;;29.67;6.47;;;4.40;99.90;;;;;;5071213;28;20218;-65
2022/01/30 09:00:46;;;;;;;20.33;5.77;;;4.50;99.90;;;;;;5068976;28;20230;-65
2022/01/30 09:03:15;;;;;;;30.40;6.27;;;4.70;99.90;;;;;;5072720;28;20188;-65
2022/01/30 09:05:45;;;;;;;22.53;5.90;;;4.80;99.90;;;;;;5062807;28;21262;-65
2022/01/30 09:08:14;;;;;;;31.50;9.70;;;4.80;99.90;;;;;;5055498;28;20214;-65
2022/01/30 09:10:42;;;;;;;35.37;9.60;;;4.90;99.90;;;;;;5060128;28;20192;-65
2022/01/30 09:13:11;;;;;;;29.17;6.73;;;4.80;99.90;;;;;;5059957;28;20412;-65
2022/01/30 09:15:42;;;;;;;31.90;5.40;;;4.80;99.90;;;;;;5072591;28;20196;-65
2022/01/30 09:18:12;;;;;;;22.07;5.10;;;4.80;99.90;;;;;;5059446;28;20230;-65
2022/01/30 09:20:43;;;;;;;24.87;7.00;;;5.00;99.90;;;;;;5053783;28;20286;-65
2022/01/30 09:23:13;;;;;;;31.90;8.90;;;5.00;99.90;;;;;;5055389;28;20282;-64
2022/01/30 09:25:46;;;;;;;30.10;8.53;;;5.20;99.90;;;;;;5060380;28;20234;-65
2022/01/30 09:28:15;;;;;;;32.53;9.10;;;5.30;99.90;;;;;;5061622;28;20208;-65
2022/01/30 09:30:45;;;;;;;23.13;7.20;;;5.50;99.90;;;;;;5065143;28;20279;-65
2022/01/30 09:33:13;;;;;;;27.60;8.20;;;5.70;99.90;;;;;;5064099;28;20684;-65
2022/01/30 09:35:43;;;;;;;38.00;9.30;;;5.90;99.90;;;;;;5062961;28;20196;-65
2022/01/30 09:38:13;;;;;;;25.40;6.17;;;6.20;99.90;;;;;;5054487;28;20232;-64
2022/01/30 09:40:42;;;;;;;21.03;5.47;;;6.40;99.90;;;;;;5055826;28;20238;-64
2022/01/30 09:43:11;;;;;;;19.73;5.17;;;6.60;99.90;;;;;;5062969;28;20242;-64
2022/01/30 09:45:40;;;;;;;23.80;5.47;;;6.60;99.90;;;;;;5063224;28;20257;-66
2022/01/30 09:48:09;;;;;;;21.83;5.90;;;6.80;99.90;;;;;;5074041;28;20204;-65
2022/01/30 09:50:38;;;;;;;20.07;5.57;;;7.00;99.90;;;;;;5059584;28;20192;-64
2022/01/30 09:53:07;;;;;;;22.87;6.30;;;7.20;99.90;;;;;;5059604;28;20603;-63
2022/01/30 09:55:37;;;;;;;16.57;5.67;;;7.30;99.90;;;;;;5058954;28;20215;-64
2022/01/30 09:58:05;;;;;;;22.70;5.17;;;7.40;99.90;;;;;;5062253;28;20261;-64
2022/01/30 10:00:35;;;;;;;17.07;5.23;;;7.50;99.90;;;;;;5060299;28;20223;-64
2022/01/30 10:03:04;;;;;;;19.10;4.90;;;7.60;99.90;;;;;;5067622;28;20203;-64
2022/01/30 10:05:36;;;;;;;22.37;5.37;;;7.80;99.90;;;;;;5054833;28;20203;-62
2022/01/30 10:08:05;;;;;;;20.03;5.10;;;7.90;99.90;;;;;;5053169;28;20227;-65
2022/01/30 10:10:36;;;;;;;16.33;4.90;;;8.00;99.90;;;;;;5056968;28;20192;-65
2022/01/30 10:13:09;;;;;;;21.60;4.67;;;8.10;99.90;;;;;;5047178;28;20192;-65
2022/01/30 10:15:51;;;;;;;26.43;6.07;;;8.30;99.90;;;;;;5065353;28;20238;-65
2022/01/30 10:18:20;;;;;;;17.57;4.70;;;8.50;99.90;;;;;;5068633;28;20204;-65
2022/01/30 10:20:49;;;;;;;17.87;5.37;;;8.60;99.90;;;;;;5062642;28;20231;-65
2022/01/30 10:23:18;;;;;;;16.47;4.20;;;8.80;99.90;;;;;;5053664;28;20205;-65
2022/01/30 10:25:53;;;;;;;14.00;4.80;;;8.90;99.90;;;;;;5052749;28;20197;-64
2022/01/30 10:28:28;;;;;;;18.43;4.30;;;9.00;99.90;;;;;;5052165;28;20657;-65
2022/01/30 10:30:58;;;;;;;13.67;4.20;;;9.30;99.90;;;;;;5070776;28;20203;-65
2022/01/30 10:33:40;;;;;;;17.00;4.17;;;9.50;99.90;;;;;;5060749;28;20188;-64
2022/01/30 10:36:09;;;;;;;16.00;4.97;;;9.60;99.90;;;;;;5063002;28;20197;-65
2022/01/30 10:38:40;;;;;;;23.70;5.77;;;9.80;99.90;;;;;;5061827;28;20261;-65
2022/01/30 10:41:14;;;;;;;14.03;4.30;;;9.90;99.90;;;;;;5062227;28;20205;-65
2022/01/30 10:43:54;;;;;;;23.70;4.53;;;10.10;99.90;;;;;;5072235;28;20227;-65
2022/01/30 10:46:25;;;;;;;16.33;4.60;;;10.20;99.90;;;;;;5059098;28;20279;-66
2022/01/30 10:48:56;;;;;;;22.70;5.07;;;10.20;99.90;;;;;;5060709;28;20195;-65
2022/01/30 10:51:28;;;;;;;23.30;4.90;;;10.10;99.90;;;;;;5065364;28;20785;-66
2022/01/30 10:53:58;;;;;;;19.63;5.13;;;9.90;99.90;;;;;;5056608;28;20212;-65
2022/01/30 10:56:29;;;;;;;21.47;6.23;;;10.00;99.90;;;;;;5061535;28;20184;-65
2022/01/30 10:59:13;;;;;;;15.63;5.30;;;10.10;99.90;;;;;;5064739;28;20258;-65
2022/01/30 11:01:43;;;;;;;23.03;6.10;;;10.00;99.90;;;;;;5063013;28;20204;-66
2022/01/30 11:04:23;;;;;;;19.50;6.17;;;9.80;99.90;;;;;;5066633;28;20208;-66
2022/01/30 11:06:52;;;;;;;17.27;4.20;;;9.70;99.90;;;;;;5057611;28;20203;-65
2022/01/30 11:09:25;;;;;;;18.40;5.40;;;9.80;99.90;;;;;;5063356;28;20196;-66
2022/01/30 11:11:59;;;;;;;19.70;5.40;;;9.90;99.90;;;;;;5071157;28;20227;-65
2022/01/30 11:14:37;;;;;;;17.10;5.43;;;9.90;99.90;;;;;;5065077;28;20195;-66
2022/01/30 11:17:08;;;;;;;25.00;4.90;;;10.10;99.90;;;;;;5065579;28;20211;-65
2022/01/30 11:19:39;;;;;;;12.53;4.50;;;10.40;99.90;;;;;;5064910;28;20196;-66
2022/01/30 11:22:09;;;;;;;17.33;4.60;;;10.60;99.90;;;;;;5061495;28;20892;-66
2022/01/30 11:24:46;;;;;;;19.87;6.83;;;10.70;99.90;;;;;;5069856;28;20196;-66
2022/01/30 11:27:16;;;;;;;14.63;4.57;;;10.80;99.90;;;;;;5063731;28;20254;-66
2022/01/30 11:29:47;;;;;;;14.70;3.63;;;11.10;99.90;;;;;;5064717;28;20196;-66
2022/01/30 11:32:18;;;;;;;12.40;3.43;;;11.30;99.90;;;;;;5058943;28;20254;-66
2022/01/30 11:34:55;;;;;;;12.80;4.63;;;11.40;99.90;;;;;;5061118;28;20198;-66
2022/01/30 11:37:28;;;;;;;18.97;5.37;;;11.60;99.90;;;;;;5065559;28;20208;-66
2022/01/30 11:39:57;;;;;;;15.83;4.57;;;11.70;99.90;;;;;;5061617;28;20200;-66
2022/01/30 11:42:27;;;;;;;19.70;5.07;;;11.70;99.90;;;;;;5071805;28;20215;-65
2022/01/30 11:45:17;;;;;;;19.53;4.03;;;11.60;99.90;;;;;;5061010;28;20231;-66
2022/01/30 11:48:03;;;;;;;21.53;5.13;;;11.60;99.90;;;;;;5064478;28;20289;-66
2022/01/30 11:50:33;;;;;;;11.80;3.63;;;11.30;99.90;;;;;;5070051;28;20238;-65
2022/01/30 11:53:04;;;;;;;20.67;3.90;;;11.20;99.90;;;;;;5064530;28;20251;-66
2022/01/30 11:55:48;;;;;;;17.73;5.63;;;11.00;99.90;;;;;;5069752;28;20602;-65
2022/01/30 11:58:47;;;;;;;14.33;3.30;;;11.00;99.90;;;;;;5062259;28;20203;-65
2022/01/30 12:01:40;;;;;;;13.40;3.47;;;11.20;99.90;;;;;;5063102;28;20260;-67
2022/01/30 12:04:15;;;;;;;19.30;3.77;;;10.90;99.90;;;;;;5063735;28;20201;-66
2022/01/30 12:06:50;;;;;;;13.97;3.57;;;10.60;99.90;;;;;;5078300;28;20249;-66
2022/01/30 12:09:27;;;;;;;15.77;3.67;;;10.20;99.90;;;;;;5065230;28;20245;-67
2022/01/30 12:11:57;;;;;;;8.03;3.03;;;10.10;99.90;;;;;;5061361;28;20861;-66
2022/01/30 12:14:56;;;;;;;11.97;3.30;;;9.90;99.90;;;;;;5066007;28;20265;-66
2022/01/30 12:17:59;;;;;;;15.67;4.10;;;9.80;99.90;;;;;;5068100;28;20192;-66
2022/01/30 12:20:30;;;;;;;14.10;3.47;;;9.50;99.90;;;;;;5060478;28;20199;-65
2022/01/30 12:22:59;;;;;;;18.10;4.80;;;9.40;99.90;;;;;;5064112;28;20646;-65
2022/01/30 12:25:39;;;;;;;17.83;5.40;;;9.30;99.90;;;;;;5069838;28;20242;-65
2022/01/30 12:28:10;;;;;;;10.57;3.20;;;9.10;99.90;;;;;;5061749;28;20203;-65
2022/01/30 12:30:46;;;;;;;9.80;3.63;;;8.90;99.90;;;;;;5059402;28;20669;-65
2022/01/30 12:33:41;;;;;;;18.20;4.43;;;8.80;99.90;;;;;;5073397;28;20763;-66
2022/01/30 12:36:22;;;;;;;18.90;4.70;;;8.70;99.90;;;;;;5060115;28;20192;-66
2022/01/30 12:38:57;;;;;;;22.97;5.40;;;9.10;99.90;;;;;;5071477;28;20203;-65
2022/01/30 12:41:26;;;;;;;12.93;4.70;;;9.40;99.90;;;;;;5065071;28;20675;-66
2022/01/30 12:44:01;;;;;;;14.13;3.60;;;9.80;99.90;;;;;;5065590;28;20944;-67
2022/01/30 12:46:32;;;;;;;14.50;3.93;;;10.20;99.90;;;;;;5067927;28;20192;-67
2022/01/30 12:49:06;;;;;;;18.40;4.33;;;10.70;99.90;;;;;;5063803;28;20826;-67
2022/01/30 12:51:37;;;;;;;12.87;3.90;;;11.30;99.90;;;;;;5057087;28;20258;-66
2022/01/30 12:54:07;;;;;;;12.57;3.33;;;11.70;99.90;;;;;;5059967;28;20280;-66
2022/01/30 12:56:37;;;;;;;15.73;3.70;;;12.00;99.90;;;;;;5064546;28;20218;-66
2022/01/30 12:59:10;;;;;;;12.97;4.17;;;12.20;99.90;;;;;;5071793;28;20192;-66
2022/01/30 13:01:44;;;;;;;11.53;4.40;;;12.60;99.90;;;;;;5062732;28;20291;-66
2022/01/30 13:04:16;;;;;;;17.43;4.33;;;12.40;99.90;;;;;;5064846;28;20693;-65
2022/01/30 13:06:47;;;;;;;17.87;4.17;;;11.90;99.90;;;;;;5061211;28;20199;-66
2022/01/30 13:09:21;;;;;;;17.23;3.73;;;11.50;99.90;;;;;;5056743;28;20773;-67
2022/01/30 13:11:50;;;;;;;15.47;3.87;;;11.60;99.90;;;;;;5057205;28;20204;-66
2022/01/30 13:14:20;;;;;;;13.10;3.67;;;11.60;99.90;;;;;;5059661;28;20487;-66
2022/01/30 13:16:50;;;;;;;22.97;5.00;;;11.10;99.90;;;;;;5054105;28;20224;-65
2022/01/30 13:19:32;;;;;;;12.60;4.03;;;10.80;99.90;;;;;;5056008;28;20215;-66
2022/01/30 13:22:01;;;;;;;19.77;5.80;;;10.40;99.90;;;;;;5064066;28;20291;-66
2022/01/30 13:24:31;;;;;;;15.67;4.43;;;10.20;99.90;;;;;;5052665;28;20205;-66
2022/01/30 13:27:02;;;;;;;11.50;3.40;;;10.10;99.90;;;;;;5055059;28;20208;-66
2022/01/30 13:29:34;;;;;;;17.77;5.50;;;10.20;99.90;;;;;;5056601;28;20857;-66
2022/01/30 13:32:08;;;;;;;25.20;7.23;;;10.10;99.90;;;;;;5043655;28;20192;-66
2022/01/30 13:34:42;;;;;;;43.53;12.77;;;10.00;99.90;;;;;;5056383;28;20200;-66
2022/01/30 13:37:11;;;;;;;20.20;5.73;;;10.00;99.90;;;;;;5063592;28;20857;-66
2022/01/30 13:39:45;;;;;;;15.77;3.50;;;9.90;99.90;;;;;;5064426;28;20690;-66
2022/01/30 13:42:45;;;;;;;12.43;3.67;;;9.90;99.90;;;;;;5067611;28;20223;-66
2022/01/30 13:48:14;;;;;;;17.43;4.03;;;9.90;99.90;;;;;;5065278;28;20207;-66
2022/01/30 13:50:46;;;;;;;15.60;4.53;;;10.10;99.90;;;;;;5067745;28;20220;-65